createdAt,value
2023-03-20T00:00:36.086Z,11.20
2023-03-20T00:03:07.316Z,11.20
2023-03-20T00:05:40.648Z,11.20
2023-03-20T00:08:12.756Z,11.20
2023-03-20T00:10:46.174Z,11.10
2023-03-20T00:13:24.693Z,11.00
2023-03-20T00:15:55.523Z,11.00
2023-03-20T00:18:26.803Z,11.00
2023-03-20T00:21:00.676Z,10.90
2023-03-20T00:23:32.464Z,10.90
2023-03-20T00:26:03.325Z,10.90
2023-03-20T00:28:40.920Z,10.80
2023-03-20T00:31:24.644Z,10.80
2023-03-20T00:33:57.275Z,10.70
2023-03-20T00:36:31.149Z,10.70
2023-03-20T00:39:01.940Z,10.70
2023-03-20T00:41:36.321Z,10.70
2023-03-20T00:44:24.403Z,10.70
2023-03-20T00:46:58.871Z,10.50
2023-03-20T00:49:32.528Z,10.50
2023-03-20T00:52:09.410Z,10.60
2023-03-20T00:54:40.402Z,10.50
2023-03-20T00:57:16.004Z,10.50
2023-03-20T00:59:58.191Z,10.50
2023-03-20T01:02:31.659Z,10.50
2023-03-20T01:05:03.801Z,10.50
2023-03-20T01:07:37.202Z,10.40
2023-03-20T01:10:09.278Z,10.40
2023-03-20T01:12:41.964Z,10.40
2023-03-20T01:15:22.619Z,10.50
2023-03-20T01:17:53.717Z,10.40
2023-03-20T01:20:27.759Z,10.30
2023-03-20T01:23:01.165Z,10.20
2023-03-20T01:25:32.463Z,10.20
2023-03-20T01:28:03.709Z,10.20
2023-03-20T01:30:35.902Z,10.20
2023-03-20T01:33:14.767Z,10.10
2023-03-20T01:35:46.502Z,10.40
2023-03-20T01:38:22.851Z,10.40
2023-03-20T01:40:58.148Z,10.40
2023-03-20T01:43:30.873Z,10.40
2023-03-20T01:46:06.366Z,10.30
2023-03-20T01:49:01.153Z,10.20
2023-03-20T01:51:35.945Z,10.20
2023-03-20T01:54:16.104Z,10.20
2023-03-20T01:56:52.645Z,10.30
2023-03-20T01:59:28.092Z,10.20
2023-03-20T02:01:59.704Z,10.20
2023-03-20T02:04:37.048Z,10.30
2023-03-20T02:07:09.925Z,10.30
2023-03-20T02:09:43.240Z,10.20
2023-03-20T02:12:14.770Z,10.20
2023-03-20T02:14:47.032Z,10.20
2023-03-20T02:17:18.594Z,10.30
2023-03-20T02:20:00.655Z,10.30
2023-03-20T02:22:48.009Z,10.30
2023-03-20T02:25:49.767Z,10.30
2023-03-20T02:28:52.367Z,10.30
2023-03-20T02:31:57.197Z,10.20
2023-03-20T02:35:03.630Z,10.20
2023-03-20T02:37:56.082Z,10.20
2023-03-20T02:40:36.376Z,10.10
2023-03-20T02:43:14.019Z,10.10
2023-03-20T02:45:55.611Z,10.10
2023-03-20T02:48:39.015Z,10.10
2023-03-20T02:51:15.766Z,10.10
2023-03-20T02:53:55.434Z,10.10
2023-03-20T02:56:34.137Z,10.10
2023-03-20T02:59:15.363Z,10.10
2023-03-20T03:01:54.398Z,10.10
2023-03-20T03:04:29.921Z,10.00
2023-03-20T03:07:03.178Z,10.00
2023-03-20T03:09:41.672Z,10.00
2023-03-20T03:12:18.136Z,10.00
2023-03-20T03:14:51.931Z,10.00
2023-03-20T03:17:27.259Z,10.00
2023-03-20T03:20:02.272Z,9.90
2023-03-20T03:22:34.406Z,9.80
2023-03-20T03:25:09.293Z,9.80
2023-03-20T03:27:42.894Z,9.80
2023-03-20T03:30:18.792Z,9.70
2023-03-20T03:32:51.915Z,9.70
2023-03-20T03:35:26.975Z,9.70
2023-03-20T03:38:03.241Z,9.70
2023-03-20T03:40:43.505Z,9.70
2023-03-20T03:43:20.772Z,9.60
2023-03-20T03:45:55.668Z,9.60
2023-03-20T03:48:31.885Z,9.50
2023-03-20T03:51:34.433Z,9.50
2023-03-20T03:54:29.558Z,9.50
2023-03-20T03:57:07.535Z,9.50
2023-03-20T03:59:40.948Z,9.50
2023-03-20T04:02:12.938Z,9.50
2023-03-20T04:04:48.830Z,9.50
2023-03-20T04:07:20.060Z,9.50
2023-03-20T04:09:50.951Z,9.40
2023-03-20T04:12:40.706Z,9.40
2023-03-20T04:15:12.694Z,9.30
2023-03-20T04:17:43.712Z,9.30
2023-03-20T04:20:16.153Z,9.40
2023-03-20T04:22:47.369Z,9.40
2023-03-20T04:25:23.046Z,9.40
2023-03-20T04:27:56.539Z,9.40
2023-03-20T04:30:27.525Z,9.40
2023-03-20T04:32:58.576Z,9.40
2023-03-20T04:35:29.347Z,9.40
2023-03-20T04:38:00.152Z,9.30
2023-03-20T04:40:31.724Z,9.40
2023-03-20T04:43:07.689Z,9.30
2023-03-20T04:45:38.875Z,9.30
2023-03-20T04:48:11.090Z,9.20
2023-03-20T04:50:41.951Z,9.20
2023-03-20T04:53:12.666Z,9.30
2023-03-20T04:55:43.674Z,9.30
2023-03-20T04:58:22.170Z,9.30
2023-03-20T05:00:52.921Z,9.20
2023-03-20T05:03:24.238Z,9.20
2023-03-20T05:05:55.149Z,9.20
2023-03-20T05:08:26.077Z,9.20
2023-03-20T05:10:59.452Z,9.20
2023-03-20T05:13:32.955Z,9.20
2023-03-20T05:16:03.914Z,9.20
2023-03-20T05:18:34.703Z,9.20
2023-03-20T05:21:05.822Z,9.10
2023-03-20T05:23:36.673Z,9.10
2023-03-20T05:26:08.111Z,9.10
2023-03-20T05:28:42.802Z,9.10
2023-03-20T05:31:13.602Z,9.10
2023-03-20T05:33:46.922Z,9.10
2023-03-20T05:36:17.721Z,9.00
2023-03-20T05:38:50.640Z,9.10
2023-03-20T05:41:22.417Z,9.00
2023-03-20T05:43:55.713Z,9.00
2023-03-20T05:46:27.028Z,9.00
2023-03-20T05:48:57.858Z,9.00
2023-03-20T05:51:28.667Z,9.30
2023-03-20T05:53:59.344Z,9.00
2023-03-20T05:56:32.719Z,9.00
2023-03-20T05:59:06.564Z,9.00
2023-03-20T06:01:37.388Z,9.00
2023-03-20T06:04:11.325Z,9.00
2023-03-20T06:06:44.903Z,8.90
2023-03-20T06:09:15.736Z,8.90
2023-03-20T06:11:46.441Z,8.90
2023-03-20T06:14:20.077Z,8.90
2023-03-20T06:16:51.043Z,8.90
2023-03-20T06:19:21.861Z,8.80
2023-03-20T06:21:52.787Z,8.80
2023-03-20T06:24:23.809Z,8.80
2023-03-20T06:26:57.121Z,8.90
2023-03-20T06:29:31.265Z,8.90
2023-03-20T06:32:02.034Z,9.00
2023-03-20T06:34:33.195Z,9.00
2023-03-20T06:37:04.002Z,8.70
2023-03-20T06:39:35.033Z,8.90
2023-03-20T06:42:06.322Z,9.10
2023-03-20T06:44:39.608Z,8.90
2023-03-20T06:47:12.258Z,8.90
2023-03-20T06:49:45.924Z,8.90
2023-03-20T06:52:19.929Z,8.90
2023-03-20T06:54:51.289Z,8.90
2023-03-20T06:57:24.604Z,8.90
2023-03-20T06:59:57.927Z,8.90
2023-03-20T07:02:28.771Z,8.90
2023-03-20T07:04:59.529Z,8.90
2023-03-20T07:07:30.588Z,8.90
2023-03-20T07:10:01.659Z,8.90
2023-03-20T07:12:32.577Z,9.00
2023-03-20T07:15:06.290Z,9.10
2023-03-20T07:17:37.200Z,9.10
2023-03-20T07:20:10.052Z,9.10
2023-03-20T07:22:41.702Z,9.10
2023-03-20T07:25:13.559Z,9.20
2023-03-20T07:27:50.508Z,9.20
2023-03-20T07:30:24.119Z,9.30
2023-03-20T07:32:54.981Z,9.30
2023-03-20T07:35:25.828Z,9.20
2023-03-20T07:37:58.263Z,9.40
2023-03-20T07:40:29.244Z,9.40
2023-03-20T07:43:01.200Z,9.40
2023-03-20T07:45:34.780Z,9.70
2023-03-20T07:48:05.733Z,9.90
2023-03-20T07:50:37.953Z,9.60
2023-03-20T07:53:08.723Z,9.70
2023-03-20T07:55:39.437Z,9.80
2023-03-20T07:58:15.487Z,9.70
2023-03-20T08:00:48.992Z,9.80
2023-03-20T08:03:19.902Z,9.80
2023-03-20T08:05:50.864Z,9.90
2023-03-20T08:08:21.901Z,10.00
2023-03-20T08:10:52.731Z,10.10
2023-03-20T08:13:23.707Z,10.00
2023-03-20T08:15:57.486Z,10.10
2023-03-20T08:18:30.578Z,10.10
2023-03-20T08:21:01.820Z,10.10
2023-03-20T08:23:32.689Z,10.20
2023-03-20T08:26:03.751Z,10.20
2023-03-20T08:28:48.763Z,10.20
2023-03-20T08:31:23.099Z,10.10
2023-03-20T08:33:54.001Z,10.00
2023-03-20T08:36:25.883Z,10.10
2023-03-20T08:38:59.820Z,10.10
2023-03-20T08:41:33.609Z,10.30
2023-03-20T08:44:10.647Z,10.30
2023-03-20T08:46:47.442Z,10.50
2023-03-20T08:49:18.787Z,10.60
2023-03-20T08:51:49.515Z,10.60
2023-03-20T08:54:20.266Z,10.60
2023-03-20T08:56:51.482Z,10.60
2023-03-20T08:59:22.935Z,10.60
2023-03-20T09:01:59.155Z,10.70
2023-03-20T09:04:29.975Z,10.70
2023-03-20T09:07:03.085Z,10.90
2023-03-20T09:09:34.310Z,10.90
2023-03-20T09:12:05.181Z,10.90
2023-03-20T09:14:39.259Z,10.70
2023-03-20T09:17:12.561Z,10.70
2023-03-20T09:19:45.491Z,10.70
2023-03-20T09:22:18.227Z,10.50
2023-03-20T09:24:49.627Z,10.50
2023-03-20T09:27:20.322Z,10.50
2023-03-20T09:29:51.103Z,10.40
2023-03-20T09:32:24.457Z,10.50
2023-03-20T09:34:55.568Z,10.50
2023-03-20T09:37:26.426Z,10.50
2023-03-20T09:39:57.919Z,10.50
2023-03-20T09:42:37.811Z,10.40
2023-03-20T09:45:16.901Z,10.40
2023-03-20T09:48:01.372Z,10.50
2023-03-20T09:50:39.810Z,10.50
2023-03-20T09:53:15.838Z,10.50
2023-03-20T09:55:47.517Z,10.60
2023-03-20T09:58:24.194Z,10.60
2023-03-20T10:00:58.229Z,10.60
2023-03-20T10:03:42.050Z,10.70
2023-03-20T10:06:17.088Z,10.60
2023-03-20T10:08:48.849Z,10.60
2023-03-20T10:11:53.237Z,10.50
2023-03-20T10:14:32.348Z,10.60
2023-03-20T10:17:15.866Z,10.60
2023-03-20T10:19:56.095Z,10.60
2023-03-20T10:22:30.784Z,10.80
2023-03-20T10:25:09.064Z,10.80
2023-03-20T10:27:43.526Z,10.90
2023-03-20T10:30:29.569Z,10.90
2023-03-20T10:33:12.933Z,11.00
2023-03-20T10:35:53.130Z,11.00
2023-03-20T10:38:34.902Z,11.00
2023-03-20T10:41:07.642Z,11.10
2023-03-20T10:43:43.048Z,11.10
2023-03-20T10:46:18.558Z,11.00
2023-03-20T10:48:52.925Z,11.00
2023-03-20T10:51:32.068Z,11.00
2023-03-20T10:54:06.413Z,11.10
2023-03-20T10:56:41.326Z,11.00
2023-03-20T10:59:20.089Z,11.00
2023-03-20T11:01:51.326Z,11.10
2023-03-20T11:04:23.640Z,11.10
2023-03-20T11:07:03.664Z,11.10
2023-03-20T11:09:34.321Z,11.10
2023-03-20T11:12:05.982Z,11.00
2023-03-20T11:14:40.056Z,11.50
2023-03-20T11:17:12.983Z,10.90
2023-03-20T11:19:44.724Z,10.90
2023-03-20T11:22:29.474Z,10.80
2023-03-20T11:25:03.644Z,10.90
2023-03-20T11:27:37.542Z,10.90
2023-03-20T11:30:17.909Z,11.00
2023-03-20T11:32:53.052Z,11.10
2023-03-20T11:35:31.037Z,11.10
2023-03-20T11:38:16.540Z,11.20
2023-03-20T11:40:48.664Z,11.20
2023-03-20T11:43:23.027Z,11.30
2023-03-20T11:45:58.736Z,11.30
2023-03-20T11:48:40.440Z,11.30
2023-03-20T11:51:13.802Z,11.80
2023-03-20T11:54:01.139Z,11.40
2023-03-20T11:56:33.316Z,11.50
2023-03-20T11:59:10.277Z,11.50
2023-03-20T12:01:46.929Z,11.70
2023-03-20T12:04:20.215Z,11.70
2023-03-20T12:06:56.483Z,11.50
2023-03-20T12:09:46.452Z,11.50
2023-03-20T12:12:26.989Z,11.50
2023-03-20T12:15:01.168Z,11.60
2023-03-20T12:17:51.889Z,11.50
2023-03-20T12:20:39.336Z,11.40
2023-03-20T12:23:16.098Z,11.20
2023-03-20T12:25:56.772Z,11.20
2023-03-20T12:28:33.183Z,11.30
2023-03-20T12:31:13.336Z,11.30
2023-03-20T12:33:51.423Z,11.10
2023-03-20T12:36:31.580Z,11.00
2023-03-20T12:39:07.721Z,11.00
2023-03-20T12:41:50.949Z,11.30
2023-03-20T12:44:35.547Z,10.90
2023-03-20T12:47:21.045Z,10.90
2023-03-20T12:49:59.458Z,11.00
2023-03-20T12:52:40.267Z,11.00
2023-03-20T12:55:25.788Z,11.00
2023-03-20T12:58:09.272Z,11.00
2023-03-20T13:00:49.577Z,11.10
2023-03-20T13:03:44.296Z,11.00
2023-03-20T13:06:21.765Z,11.00
2023-03-20T13:09:16.875Z,10.90
2023-03-20T13:11:54.920Z,10.80
2023-03-20T13:14:35.283Z,10.80
2023-03-20T13:17:13.224Z,10.80
2023-03-20T13:19:51.715Z,10.80
2023-03-20T13:22:32.837Z,10.70
2023-03-20T13:25:11.791Z,10.70
2023-03-20T13:27:48.474Z,10.80
2023-03-20T13:30:29.552Z,10.90
2023-03-20T13:33:09.706Z,10.90
2023-03-20T13:35:50.680Z,10.90
2023-03-20T13:38:25.701Z,10.60
2023-03-20T13:41:01.254Z,10.60
2023-03-20T13:43:36.460Z,10.50
2023-03-20T13:46:13.575Z,10.50
2023-03-20T13:48:48.378Z,10.60
2023-03-20T13:51:32.683Z,10.60
2023-03-20T13:54:16.118Z,10.50
2023-03-20T13:56:56.387Z,10.60
2023-03-20T13:59:57.242Z,10.50
2023-03-20T14:02:41.165Z,10.50
2023-03-20T14:05:16.911Z,10.40
2023-03-20T14:07:49.928Z,10.40
2023-03-20T14:10:37.113Z,10.30
2023-03-20T14:13:16.929Z,10.20
2023-03-20T14:15:53.958Z,10.30
2023-03-20T14:18:29.118Z,10.30
2023-03-20T14:21:02.097Z,10.30
2023-03-20T14:23:38.793Z,10.30
2023-03-20T14:26:13.000Z,10.40
2023-03-20T14:28:55.215Z,10.40
2023-03-20T14:31:30.956Z,10.50
2023-03-20T14:34:16.766Z,10.60
2023-03-20T14:36:53.103Z,10.60
2023-03-20T14:39:33.038Z,10.70
2023-03-20T14:42:18.920Z,10.70
2023-03-20T14:45:07.016Z,10.80
2023-03-20T14:47:45.960Z,10.80
2023-03-20T14:50:26.183Z,10.90
2023-03-20T14:53:04.015Z,10.80
2023-03-20T14:55:49.797Z,10.80
2023-03-20T14:58:53.627Z,10.80
2023-03-20T15:01:46.339Z,10.80
2023-03-20T15:04:30.090Z,10.80
2023-03-20T15:07:07.172Z,10.90
2023-03-20T15:09:41.108Z,10.90
2023-03-20T15:12:14.504Z,10.70
2023-03-20T15:14:54.150Z,10.70
2023-03-20T15:17:27.472Z,10.70
2023-03-20T15:20:06.992Z,10.80
2023-03-20T15:22:51.155Z,10.80
2023-03-20T15:25:23.849Z,10.80
2023-03-20T15:27:54.889Z,10.70
2023-03-20T15:30:25.985Z,10.70
2023-03-20T15:32:57.832Z,10.80
2023-03-20T15:35:30.339Z,10.80
2023-03-20T15:38:09.817Z,10.60
2023-03-20T15:40:51.018Z,10.80
2023-03-20T15:43:24.762Z,10.50
2023-03-20T15:46:16.768Z,10.40
2023-03-20T15:48:51.669Z,10.30
2023-03-20T15:51:30.805Z,10.30
2023-03-20T15:54:08.001Z,10.30
2023-03-20T15:56:43.169Z,10.30
2023-03-20T15:59:17.722Z,10.40
2023-03-20T16:01:50.391Z,10.50
2023-03-20T16:04:22.268Z,10.50
2023-03-20T16:06:56.751Z,10.40
2023-03-20T16:09:31.270Z,10.40
2023-03-20T16:12:04.200Z,10.40
2023-03-20T16:14:37.299Z,10.40
2023-03-20T16:17:08.283Z,10.40
2023-03-20T16:19:39.405Z,10.40
2023-03-20T16:22:19.768Z,10.50
2023-03-20T16:25:08.199Z,10.40
2023-03-20T16:27:42.528Z,10.40
2023-03-20T16:30:20.942Z,10.50
2023-03-20T16:33:45.852Z,10.50
2023-03-20T16:36:33.891Z,10.60
2023-03-20T16:39:32.111Z,10.60
2023-03-20T16:42:26.254Z,10.50
2023-03-20T16:44:58.661Z,10.60
2023-03-20T16:47:39.208Z,10.50
2023-03-20T16:50:19.518Z,10.60
2023-03-20T16:52:53.598Z,10.60
2023-03-20T16:55:29.332Z,10.70
2023-03-20T16:58:07.961Z,10.60
2023-03-20T17:00:53.524Z,10.50
2023-03-20T17:03:29.641Z,10.90
2023-03-20T17:06:03.112Z,10.50
2023-03-20T17:08:37.995Z,10.50
2023-03-20T17:11:14.519Z,10.40
2023-03-20T17:13:48.786Z,10.40
2023-03-20T17:16:25.400Z,10.20
2023-03-20T17:19:02.741Z,10.20
2023-03-20T17:21:34.288Z,10.20
2023-03-20T17:24:05.421Z,10.20
2023-03-20T17:26:36.411Z,10.30
2023-03-20T17:29:09.985Z,10.20
2023-03-20T17:31:41.036Z,10.30
2023-03-20T17:34:17.097Z,10.20
2023-03-20T17:36:48.036Z,10.30
2023-03-20T17:39:22.425Z,10.20
2023-03-20T17:41:56.027Z,10.20
2023-03-20T17:44:29.332Z,10.20
2023-03-20T17:47:00.490Z,10.20
2023-03-20T17:49:32.201Z,10.20
2023-03-20T17:52:04.592Z,10.30
2023-03-20T17:54:35.381Z,10.20
2023-03-20T17:57:06.548Z,10.20
2023-03-20T17:59:40.014Z,10.20
2023-03-20T18:02:12.076Z,10.10
2023-03-20T18:04:42.938Z,10.10
2023-03-20T18:07:15.135Z,10.00
2023-03-20T18:09:46.842Z,9.90
2023-03-20T18:12:21.048Z,9.90
2023-03-20T18:14:54.365Z,10.00
2023-03-20T18:17:26.657Z,9.90
2023-03-20T18:19:57.402Z,10.00
2023-03-20T18:22:28.170Z,9.90
2023-03-20T18:24:58.908Z,9.90
2023-03-20T18:27:29.900Z,10.00
2023-03-20T18:30:03.256Z,10.00
2023-03-20T18:32:34.036Z,10.00
2023-03-20T18:35:04.909Z,10.00
2023-03-20T18:37:35.730Z,10.00
2023-03-20T18:40:08.973Z,10.00
2023-03-20T18:42:39.778Z,10.00
2023-03-20T18:45:14.341Z,10.00
2023-03-20T18:47:46.297Z,10.10
2023-03-20T18:50:25.921Z,10.10
2023-03-20T18:52:58.785Z,10.10
2023-03-20T18:55:34.497Z,10.10
2023-03-20T18:58:06.519Z,10.10
2023-03-20T19:00:42.761Z,10.10
2023-03-20T19:03:14.444Z,10.10
2023-03-20T19:05:46.993Z,10.10
2023-03-20T19:08:20.867Z,10.10
2023-03-20T19:10:52.390Z,10.20
2023-03-20T19:13:24.888Z,10.10
2023-03-20T19:15:58.333Z,10.10
2023-03-20T19:18:29.747Z,10.10
2023-03-20T19:21:01.251Z,10.10
2023-03-20T19:23:31.972Z,10.20
2023-03-20T19:26:02.815Z,10.20
2023-03-20T19:28:39.852Z,10.20
2023-03-20T19:31:14.641Z,10.20
2023-03-20T19:33:45.701Z,10.20
2023-03-20T19:36:29.375Z,10.20
2023-03-20T19:39:02.572Z,10.20
2023-03-20T19:41:33.761Z,10.30
2023-03-20T19:44:08.323Z,10.30
2023-03-20T19:46:42.505Z,10.40
2023-03-20T19:49:20.280Z,10.40
2023-03-20T19:51:52.042Z,10.40
2023-03-20T19:54:23.186Z,10.30
2023-03-20T19:56:53.972Z,10.40
2023-03-20T19:59:25.732Z,10.40
2023-03-20T20:01:59.770Z,10.30
2023-03-20T20:04:30.531Z,10.40
2023-03-20T20:07:36.293Z,10.40
2023-03-20T20:09:52.132Z,10.50
2023-03-20T20:12:23.144Z,10.40
2023-03-20T20:14:54.023Z,10.40
2023-03-20T20:17:27.321Z,10.40
2023-03-20T20:19:58.039Z,10.40
2023-03-20T20:22:29.103Z,10.40
2023-03-20T20:25:00.533Z,10.40
2023-03-20T20:27:32.439Z,10.40
2023-03-20T20:30:03.365Z,10.10
2023-03-20T20:32:38.958Z,10.50
2023-03-20T20:40:57.124Z,10.50
2023-03-20T20:43:56.911Z,10.50
2023-03-20T20:46:18.957Z,10.50
2023-03-20T20:48:53.026Z,10.50
2023-03-20T20:51:24.144Z,10.50
2023-03-20T20:53:54.862Z,10.60
2023-03-20T20:56:26.160Z,10.60
2023-03-20T20:58:56.997Z,10.60
2023-03-20T21:01:28.081Z,10.60
2023-03-20T21:04:02.315Z,10.60
2023-03-20T21:07:05.508Z,10.60
2023-03-20T21:09:25.894Z,10.60
2023-03-20T21:11:56.682Z,10.60
2023-03-20T21:14:27.408Z,10.70
2023-03-20T21:17:01.272Z,10.70
2023-03-20T21:19:38.825Z,10.70
2023-03-20T21:22:11.711Z,10.70
2023-03-20T21:24:43.798Z,10.70
2023-03-20T21:27:16.566Z,10.70
2023-03-20T21:29:50.162Z,10.70
2023-03-20T21:32:22.742Z,10.70
2023-03-20T21:34:56.254Z,10.70
2023-03-20T21:40:20.917Z,10.70
2023-03-20T21:42:54.487Z,10.70
2023-03-20T21:48:56.434Z,10.80
2023-03-20T22:00:20.117Z,10.80
2023-03-20T22:02:33.559Z,10.80
2023-03-20T22:11:35.034Z,10.90
2023-03-20T22:17:36.548Z,10.80
2023-03-20T22:23:06.838Z,10.80
2023-03-20T22:26:04.682Z,10.80
2023-03-20T22:28:41.901Z,10.80
2023-03-20T22:34:39.518Z,10.80
2023-03-20T22:40:11.476Z,10.80
2023-03-20T22:42:49.384Z,10.80
2023-03-20T22:45:14.037Z,10.80
2023-03-20T22:47:44.906Z,10.80
2023-03-20T22:50:15.581Z,10.90
2023-03-20T22:52:49.553Z,10.90
2023-03-20T22:55:21.101Z,10.90
2023-03-20T22:58:06.378Z,10.90
2023-03-20T23:00:39.043Z,10.80
2023-03-20T23:03:22.383Z,10.80
2023-03-20T23:05:57.079Z,10.80
2023-03-20T23:08:28.077Z,10.90
2023-03-20T23:10:58.966Z,10.80
2023-03-20T23:13:32.542Z,10.90
2023-03-20T23:16:03.391Z,10.90
2023-03-20T23:18:34.380Z,10.80
2023-03-20T23:21:05.640Z,10.80
2023-03-20T23:23:36.485Z,10.80
2023-03-20T23:26:12.214Z,10.80
2023-03-20T23:28:48.486Z,10.80
2023-03-20T23:31:21.255Z,10.90
2023-03-20T23:33:54.370Z,10.90
2023-03-20T23:36:35.932Z,11.00
2023-03-20T23:39:07.904Z,11.00
2023-03-20T23:42:08.379Z,11.00
2023-03-20T23:44:32.672Z,11.00
2023-03-20T23:47:14.434Z,10.90
2023-03-20T23:49:53.219Z,10.90
2023-03-20T23:52:24.018Z,10.90
2023-03-20T23:54:54.731Z,10.90
2023-03-20T23:57:26.672Z,10.90
2023-03-20T23:59:59.978Z,10.90
